createdAt,value
2022-11-05T00:00:34.009Z,64.70
2022-11-05T00:03:19.647Z,64.70
2022-11-05T00:06:07.126Z,64.60
2022-11-05T00:08:52.476Z,64.40
2022-11-05T00:11:19.186Z,64.20
2022-11-05T00:14:04.347Z,64.00
2022-11-05T00:16:46.320Z,64.00
2022-11-05T00:19:13.548Z,63.80
2022-11-05T00:21:58.824Z,63.70
2022-11-05T00:24:44.221Z,63.60
2022-11-05T00:27:11.201Z,63.70
2022-11-05T00:29:37.899Z,63.70
2022-11-05T00:32:04.793Z,63.40
2022-11-05T00:34:32.298Z,63.40
2022-11-05T00:36:59.115Z,63.30
2022-11-05T00:39:25.801Z,63.10
2022-11-05T00:42:11.293Z,63.00
2022-11-05T00:44:56.834Z,63.10
2022-11-05T00:47:42.332Z,63.00
2022-11-05T00:50:10.759Z,63.00
2022-11-05T00:52:57.243Z,62.90
2022-11-05T00:55:39.712Z,62.90
2022-11-05T00:58:10.131Z,62.90
2022-11-05T01:00:38.917Z,62.80
2022-11-05T01:03:08.103Z,62.70
2022-11-05T01:05:39.976Z,62.80
2022-11-05T01:08:07.244Z,62.80
2022-11-05T01:10:33.977Z,62.70
2022-11-05T01:13:00.725Z,62.80
2022-11-05T01:15:27.468Z,62.80
2022-11-05T01:17:54.226Z,63.00
2022-11-05T01:20:20.982Z,63.10
2022-11-05T01:22:47.712Z,62.80
2022-11-05T01:25:15.002Z,62.70
2022-11-05T01:27:41.704Z,62.60
2022-11-05T01:30:09.379Z,62.60
2022-11-05T01:32:37.442Z,62.50
2022-11-05T01:35:08.067Z,62.60
2022-11-05T01:37:35.563Z,62.60
2022-11-05T01:40:02.355Z,62.50
2022-11-05T01:42:32.375Z,62.50
2022-11-05T01:45:02.558Z,62.60
2022-11-05T01:47:41.505Z,62.70
2022-11-05T01:50:30.451Z,62.70
2022-11-05T01:53:04.568Z,62.60
2022-11-05T01:55:36.860Z,63.20
2022-11-05T01:58:07.702Z,62.60
2022-11-05T02:00:35.538Z,63.00
2022-11-05T02:03:02.581Z,62.40
2022-11-05T02:05:29.487Z,62.30
2022-11-05T02:07:56.550Z,62.30
2022-11-05T02:10:23.903Z,62.30
2022-11-05T02:12:50.681Z,62.20
2022-11-05T02:15:34.467Z,62.20
2022-11-05T02:18:19.825Z,62.20
2022-11-05T02:21:07.565Z,62.20
2022-11-05T02:23:58.953Z,62.40
2022-11-05T02:26:41.053Z,62.60
2022-11-05T02:29:19.807Z,62.70
2022-11-05T02:32:22.280Z,62.80
2022-11-05T02:35:02.397Z,63.10
2022-11-05T02:37:35.012Z,63.10
2022-11-05T02:40:26.915Z,63.50
2022-11-05T02:43:16.106Z,63.20
2022-11-05T02:46:09.849Z,63.20
2022-11-05T02:49:09.602Z,63.10
2022-11-05T02:51:53.742Z,63.10
2022-11-05T02:54:32.839Z,62.90
2022-11-05T02:57:02.873Z,62.80
2022-11-05T02:59:29.911Z,62.80
2022-11-05T03:01:57.993Z,62.70
2022-11-05T03:04:25.638Z,62.60
2022-11-05T03:07:11.220Z,62.50
2022-11-05T03:09:50.451Z,62.40
2022-11-05T03:12:32.189Z,62.10
2022-11-05T03:15:07.860Z,62.00
2022-11-05T03:17:48.689Z,61.80
2022-11-05T03:20:15.361Z,61.60
2022-11-05T03:22:54.359Z,61.80
2022-11-05T03:25:24.125Z,61.80
2022-11-05T03:27:55.816Z,61.80
2022-11-05T03:30:24.817Z,61.80
2022-11-05T03:32:59.252Z,61.80
2022-11-05T03:35:34.205Z,61.80
2022-11-05T03:38:06.267Z,61.80
2022-11-05T03:40:36.617Z,61.80
2022-11-05T03:43:07.721Z,61.80
2022-11-05T03:45:57.565Z,61.80
2022-11-05T03:48:29.092Z,62.10
2022-11-05T03:51:37.792Z,62.30
2022-11-05T03:54:05.394Z,62.40
2022-11-05T03:57:02.137Z,62.40
2022-11-05T03:59:31.387Z,62.60
2022-11-05T04:01:58.708Z,62.60
2022-11-05T04:04:25.573Z,62.70
2022-11-05T04:07:10.772Z,62.80
2022-11-05T04:09:56.240Z,63.00
2022-11-05T04:12:41.793Z,62.90
2022-11-05T04:15:08.814Z,62.90
2022-11-05T04:17:35.486Z,63.00
2022-11-05T04:20:20.970Z,63.20
2022-11-05T04:23:06.616Z,63.30
2022-11-05T04:25:33.802Z,63.40
2022-11-05T04:28:00.694Z,63.50
2022-11-05T04:30:28.480Z,63.60
2022-11-05T04:33:16.081Z,63.60
2022-11-05T04:35:49.283Z,63.80
2022-11-05T04:38:18.604Z,63.80
2022-11-05T04:40:46.577Z,63.90
2022-11-05T04:43:18.709Z,64.10
2022-11-05T04:45:46.313Z,64.10
2022-11-05T04:48:13.144Z,64.20
2022-11-05T04:50:40.026Z,64.20
2022-11-05T04:53:06.713Z,64.20
2022-11-05T04:55:33.391Z,64.30
2022-11-05T04:58:00.034Z,64.30
2022-11-05T05:00:26.882Z,64.40
2022-11-05T05:02:53.684Z,64.40
2022-11-05T05:05:22.517Z,64.50
2022-11-05T05:07:50.362Z,64.50
2022-11-05T05:10:17.212Z,64.40
2022-11-05T05:12:43.962Z,64.50
2022-11-05T05:15:10.646Z,64.80
2022-11-05T05:17:37.484Z,64.90
2022-11-05T05:20:23.214Z,64.90
2022-11-05T05:22:56.070Z,65.00
2022-11-05T05:25:23.247Z,64.80
2022-11-05T05:27:49.920Z,64.70
2022-11-05T05:30:16.873Z,64.60
2022-11-05T05:32:43.794Z,64.50
2022-11-05T05:35:10.597Z,64.50
2022-11-05T05:37:37.233Z,64.40
2022-11-05T05:40:04.505Z,64.20
2022-11-05T05:42:31.219Z,64.10
2022-11-05T05:44:57.876Z,64.10
2022-11-05T05:47:24.603Z,64.20
2022-11-05T05:49:51.626Z,64.10
2022-11-05T05:52:18.387Z,64.00
2022-11-05T05:54:45.093Z,64.00
2022-11-05T05:57:11.842Z,64.00
2022-11-05T05:59:38.676Z,64.00
2022-11-05T06:02:05.410Z,64.00
2022-11-05T06:04:32.215Z,64.20
2022-11-05T06:06:58.970Z,64.40
2022-11-05T06:09:25.692Z,64.70
2022-11-05T06:11:52.454Z,64.90
2022-11-05T06:14:19.202Z,65.00
2022-11-05T06:16:45.892Z,65.00
2022-11-05T06:19:12.534Z,65.10
2022-11-05T06:21:39.381Z,65.30
2022-11-05T06:24:06.405Z,65.30
2022-11-05T06:26:34.017Z,65.50
2022-11-05T06:29:00.683Z,65.70
2022-11-05T06:31:27.366Z,65.60
2022-11-05T06:33:54.114Z,65.50
2022-11-05T06:36:21.273Z,65.50
2022-11-05T06:38:48.107Z,65.50
2022-11-05T06:41:15.198Z,65.60
2022-11-05T06:43:42.104Z,65.60
2022-11-05T06:46:10.992Z,65.80
2022-11-05T06:48:38.240Z,65.80
2022-11-05T06:51:05.821Z,65.70
2022-11-05T06:53:34.440Z,65.60
2022-11-05T06:56:09.925Z,65.60
2022-11-05T06:58:36.825Z,65.60
2022-11-05T07:01:09.036Z,65.50
2022-11-05T07:03:37.284Z,65.30
2022-11-05T07:06:06.013Z,65.20
2022-11-05T07:08:36.363Z,65.10
2022-11-05T07:11:03.726Z,65.00
2022-11-05T07:13:30.496Z,65.00
2022-11-05T07:15:57.631Z,65.00
2022-11-05T07:18:24.327Z,65.00
2022-11-05T07:20:50.969Z,65.00
2022-11-05T07:23:17.661Z,65.00
2022-11-05T07:25:44.636Z,64.90
2022-11-05T07:28:11.859Z,64.70
2022-11-05T07:30:39.362Z,64.50
2022-11-05T07:33:06.159Z,64.50
2022-11-05T07:35:32.961Z,64.30
2022-11-05T07:37:59.808Z,64.60
2022-11-05T07:40:27.811Z,64.50
2022-11-05T07:42:57.242Z,64.50
2022-11-05T07:45:24.923Z,64.60
2022-11-05T07:47:57.102Z,64.40
2022-11-05T07:50:26.355Z,64.10
2022-11-05T07:52:53.576Z,64.10
2022-11-05T07:55:20.771Z,64.10
2022-11-05T07:57:50.113Z,63.90
2022-11-05T08:00:21.481Z,63.90
2022-11-05T08:03:03.816Z,63.90
2022-11-05T08:05:36.923Z,64.00
2022-11-05T08:08:04.673Z,64.00
2022-11-05T08:10:31.654Z,64.30
2022-11-05T08:12:58.448Z,64.40
2022-11-05T08:15:25.613Z,64.40
2022-11-05T08:18:00.504Z,64.60
2022-11-05T08:20:27.833Z,64.90
2022-11-05T08:22:54.982Z,65.00
2022-11-05T08:25:21.728Z,64.90
2022-11-05T08:27:48.579Z,65.00
2022-11-05T08:30:15.265Z,65.20
2022-11-05T08:32:41.946Z,65.50
2022-11-05T08:35:08.891Z,65.70
2022-11-05T08:37:35.527Z,65.80
2022-11-05T08:40:02.294Z,65.90
2022-11-05T08:42:29.037Z,66.20
2022-11-05T08:44:55.762Z,66.30
2022-11-05T08:47:22.468Z,66.50
2022-11-05T08:49:49.212Z,66.70
2022-11-05T08:52:15.915Z,66.90
2022-11-05T08:54:43.651Z,67.00
2022-11-05T08:57:10.316Z,67.20
2022-11-05T08:59:36.969Z,67.30
2022-11-05T09:02:03.996Z,67.50
2022-11-05T09:04:30.922Z,67.70
2022-11-05T09:06:57.662Z,67.90
2022-11-05T09:09:24.311Z,68.10
2022-11-05T09:12:11.768Z,68.70
2022-11-05T09:14:38.397Z,69.50
2022-11-05T09:17:12.041Z,69.60
2022-11-05T09:19:40.269Z,69.10
2022-11-05T09:22:07.107Z,69.10
2022-11-05T09:24:33.757Z,68.50
2022-11-05T09:27:00.406Z,68.10
2022-11-05T09:29:27.103Z,68.10
2022-11-05T09:31:53.778Z,68.20
2022-11-05T09:34:20.483Z,68.10
2022-11-05T09:36:47.477Z,68.10
2022-11-05T09:39:14.286Z,68.10
2022-11-05T09:41:43.497Z,68.30
2022-11-05T09:44:17.235Z,68.30
2022-11-05T09:46:55.637Z,68.70
2022-11-05T09:49:40.016Z,68.60
2022-11-05T09:52:13.584Z,68.60
2022-11-05T09:54:40.438Z,68.60
2022-11-05T09:57:13.244Z,68.90
2022-11-05T09:59:46.464Z,69.00
2022-11-05T10:02:17.407Z,69.00
2022-11-05T10:04:48.843Z,69.10
2022-11-05T10:07:21.264Z,69.10
2022-11-05T10:09:53.573Z,69.20
2022-11-05T10:12:31.831Z,69.50
2022-11-05T10:15:14.737Z,69.60
2022-11-05T10:17:47.675Z,69.60
2022-11-05T10:20:35.710Z,70.00
2022-11-05T10:23:09.683Z,70.00
2022-11-05T10:25:41.072Z,70.00
2022-11-05T10:28:09.953Z,69.80
2022-11-05T10:30:37.272Z,69.60
2022-11-05T10:33:06.536Z,69.70
2022-11-05T10:35:40.530Z,69.80
2022-11-05T10:38:09.245Z,69.60
2022-11-05T10:40:48.146Z,69.40
2022-11-05T10:43:18.387Z,69.30
2022-11-05T10:46:09.413Z,69.10
2022-11-05T10:49:03.208Z,69.30
2022-11-05T10:51:31.760Z,69.30
2022-11-05T10:54:07.477Z,69.20
2022-11-05T10:56:39.515Z,69.50
2022-11-05T10:59:21.951Z,69.60
2022-11-05T11:02:00.854Z,69.50
2022-11-05T11:04:36.549Z,69.00
2022-11-05T11:07:04.716Z,68.80
2022-11-05T11:09:35.722Z,68.70
2022-11-05T11:12:13.166Z,68.80
2022-11-05T11:14:42.741Z,68.90
2022-11-05T11:17:16.930Z,69.10
2022-11-05T11:19:45.346Z,68.90
2022-11-05T11:22:19.755Z,68.80
2022-11-05T11:24:52.006Z,68.60
2022-11-05T11:27:31.471Z,67.80
2022-11-05T11:30:04.135Z,67.70
2022-11-05T11:32:39.538Z,67.30
2022-11-05T11:35:18.650Z,66.80
2022-11-05T11:37:46.462Z,67.10
2022-11-05T11:40:34.080Z,67.20
2022-11-05T11:43:05.043Z,67.20
2022-11-05T11:45:44.207Z,67.00
2022-11-05T11:48:17.145Z,66.90
2022-11-05T11:50:46.510Z,66.40
2022-11-05T11:53:26.114Z,66.10
2022-11-05T11:55:56.439Z,66.30
2022-11-05T11:58:45.342Z,66.40
2022-11-05T12:01:20.785Z,66.30
2022-11-05T12:03:53.946Z,66.30
2022-11-05T12:06:51.690Z,66.30
2022-11-05T12:09:26.764Z,66.40
2022-11-05T12:12:03.076Z,66.60
2022-11-05T12:14:54.632Z,66.20
2022-11-05T12:17:34.683Z,66.30
2022-11-05T12:20:30.010Z,66.50
2022-11-05T12:23:22.460Z,66.40
2022-11-05T12:26:08.263Z,66.40
2022-11-05T12:29:23.968Z,66.20
2022-11-05T12:32:17.149Z,66.40
2022-11-05T12:34:55.654Z,66.60
2022-11-05T12:38:07.555Z,66.00
2022-11-05T12:40:51.217Z,65.10
2022-11-05T12:43:40.475Z,64.90
2022-11-05T12:46:42.004Z,65.10
2022-11-05T12:49:23.840Z,64.50
2022-11-05T12:52:04.604Z,64.50
2022-11-05T12:55:01.899Z,64.00
2022-11-05T12:57:31.402Z,64.30
2022-11-05T13:00:19.745Z,64.50
2022-11-05T13:03:17.068Z,63.90
2022-11-05T13:05:54.407Z,63.10
2022-11-05T13:08:31.465Z,62.50
2022-11-05T13:11:06.229Z,62.20
2022-11-05T13:13:39.779Z,62.40
2022-11-05T13:16:30.404Z,62.40
2022-11-05T13:19:02.727Z,62.20
2022-11-05T13:21:30.086Z,62.60
2022-11-05T13:24:17.828Z,62.90
2022-11-05T13:27:09.450Z,63.20
2022-11-05T13:29:47.626Z,62.90
2022-11-05T13:32:29.164Z,62.40
2022-11-05T13:34:56.838Z,62.30
2022-11-05T13:37:49.470Z,62.20
2022-11-05T13:40:20.558Z,61.90
2022-11-05T13:43:06.167Z,62.50
2022-11-05T13:45:54.646Z,62.50
2022-11-05T13:48:37.634Z,62.70
2022-11-05T13:51:39.203Z,63.00
2022-11-05T13:54:39.715Z,62.50
2022-11-05T13:57:20.019Z,62.60
2022-11-05T14:00:11.468Z,62.40
2022-11-05T14:02:48.061Z,62.60
2022-11-05T14:05:39.981Z,62.50
2022-11-05T14:08:24.499Z,62.50
2022-11-05T14:11:04.803Z,62.50
2022-11-05T14:13:37.548Z,61.40
2022-11-05T14:16:08.956Z,61.90
2022-11-05T14:18:46.757Z,62.20
2022-11-05T14:21:25.555Z,62.00
2022-11-05T14:24:17.824Z,61.80
2022-11-05T14:27:05.455Z,62.30
2022-11-05T14:29:40.571Z,62.90
2022-11-05T14:32:21.698Z,63.10
2022-11-05T14:35:38.056Z,62.80
2022-11-05T14:38:17.019Z,62.70
2022-11-05T14:40:47.024Z,62.80
2022-11-05T14:43:19.291Z,62.60
2022-11-05T14:46:00.538Z,62.20
2022-11-05T14:48:38.017Z,62.30
2022-11-05T14:51:28.728Z,62.50
2022-11-05T14:54:09.407Z,62.10
2022-11-05T14:56:43.609Z,62.40
2022-11-05T14:59:19.265Z,62.30
2022-11-05T15:01:46.213Z,62.20
2022-11-05T15:04:26.884Z,62.00
2022-11-05T15:07:02.669Z,61.90
2022-11-05T15:09:49.064Z,61.60
2022-11-05T15:12:29.899Z,61.50
2022-11-05T15:15:02.635Z,61.50
2022-11-05T15:17:33.136Z,60.90
2022-11-05T15:20:22.431Z,61.00
2022-11-05T15:23:03.203Z,61.10
2022-11-05T15:25:57.481Z,60.70
2022-11-05T15:28:42.661Z,61.20
2022-11-05T15:31:12.274Z,61.20
2022-11-05T15:33:40.558Z,61.30
2022-11-05T15:36:25.404Z,61.20
2022-11-05T15:39:23.050Z,61.10
2022-11-05T15:41:39.497Z,61.20
2022-11-05T15:44:06.153Z,60.90
2022-11-05T15:46:32.867Z,60.90
2022-11-05T15:49:05.057Z,61.00
2022-11-05T15:51:31.811Z,61.30
2022-11-05T15:56:54.534Z,60.70
2022-11-05T15:59:23.579Z,60.80
2022-11-05T16:02:10.929Z,60.80
2022-11-05T16:04:37.717Z,61.10
2022-11-05T16:07:11.119Z,61.00
2022-11-05T16:09:41.256Z,61.10
2022-11-05T16:12:13.329Z,61.20
2022-11-05T16:14:41.081Z,61.30
2022-11-05T16:17:21.638Z,61.20
2022-11-05T16:19:49.231Z,61.30
2022-11-05T16:22:16.482Z,61.50
2022-11-05T16:24:44.159Z,61.70
2022-11-05T16:27:19.444Z,61.60
2022-11-05T16:30:05.073Z,61.80
2022-11-05T16:32:31.927Z,61.70
2022-11-05T16:35:06.967Z,61.80
2022-11-05T16:37:41.662Z,61.90
2022-11-05T16:40:17.577Z,62.20
2022-11-05T16:42:48.326Z,62.10
2022-11-05T16:45:16.746Z,62.30
2022-11-05T16:47:44.892Z,62.40
2022-11-05T16:50:32.508Z,62.30
2022-11-05T16:52:59.272Z,62.40
2022-11-05T16:55:26.131Z,62.30
2022-11-05T16:57:54.819Z,62.60
2022-11-05T17:00:22.010Z,62.80
2022-11-05T17:02:49.088Z,62.90
2022-11-05T17:05:24.064Z,62.60
2022-11-05T17:07:50.970Z,63.10
2022-11-05T17:10:18.327Z,63.10
2022-11-05T17:12:45.651Z,63.00
2022-11-05T17:15:17.020Z,63.10
2022-11-05T17:17:43.705Z,63.40
2022-11-05T17:20:25.814Z,63.50
2022-11-05T17:22:52.458Z,63.20
2022-11-05T17:25:19.112Z,63.30
2022-11-05T17:27:45.777Z,63.30
2022-11-05T17:30:13.231Z,63.30
2022-11-05T17:32:39.969Z,63.50
2022-11-05T17:35:07.682Z,63.50
2022-11-05T17:37:34.681Z,63.60
2022-11-05T17:40:02.115Z,63.60
2022-11-05T17:42:28.862Z,63.70
2022-11-05T17:44:55.498Z,63.80
2022-11-05T17:47:22.248Z,63.90
2022-11-05T17:49:49.018Z,63.90
2022-11-05T17:52:15.659Z,63.90
2022-11-05T17:54:42.408Z,64.00
2022-11-05T17:57:09.056Z,64.10
2022-11-05T17:59:35.729Z,64.10
2022-11-05T18:02:02.710Z,64.10
2022-11-05T18:04:29.566Z,64.10
2022-11-05T18:06:56.214Z,64.30
2022-11-05T18:09:23.143Z,64.30
2022-11-05T18:11:49.839Z,64.50
2022-11-05T18:14:23.690Z,64.70
2022-11-05T18:16:51.700Z,64.90
2022-11-05T18:19:18.446Z,65.10
2022-11-05T18:21:45.274Z,65.30
2022-11-05T18:24:12.686Z,65.50
2022-11-05T18:26:39.375Z,65.50
2022-11-05T18:29:06.408Z,65.70
2022-11-05T18:31:33.066Z,65.90
2022-11-05T18:34:00.518Z,65.60
2022-11-05T18:36:29.834Z,65.80
2022-11-05T18:39:01.584Z,65.60
2022-11-05T18:41:28.370Z,65.60
2022-11-05T18:44:02.498Z,65.70
2022-11-05T18:46:56.458Z,65.80
2022-11-05T18:49:18.005Z,65.90
2022-11-05T18:51:44.781Z,65.90
2022-11-05T18:54:11.407Z,65.80
2022-11-05T18:56:44.689Z,65.90
2022-11-05T18:59:35.240Z,65.70
2022-11-05T19:02:00.170Z,65.90
2022-11-05T19:04:27.045Z,65.60
2022-11-05T19:06:56.140Z,65.50
2022-11-05T19:09:25.626Z,65.50
2022-11-05T19:11:52.356Z,65.40
2022-11-05T19:14:19.385Z,65.30
2022-11-05T19:16:46.059Z,65.30
2022-11-05T19:19:13.273Z,65.50
2022-11-05T19:21:39.987Z,65.40
2022-11-05T19:24:07.048Z,65.40
2022-11-05T19:26:34.084Z,65.40
2022-11-05T19:29:03.106Z,65.20
2022-11-05T19:31:31.189Z,65.10
2022-11-05T19:33:58.050Z,64.80
2022-11-05T19:36:25.472Z,64.70
2022-11-05T19:39:08.708Z,64.60
2022-11-05T19:41:35.544Z,64.60
2022-11-05T19:44:02.326Z,64.70
2022-11-05T19:46:30.528Z,65.00
2022-11-05T19:48:57.598Z,64.90
2022-11-05T19:51:26.916Z,65.10
2022-11-05T19:53:55.209Z,65.10
2022-11-05T19:56:24.453Z,64.80
2022-11-05T19:58:53.025Z,65.50
2022-11-05T20:01:21.431Z,64.80
2022-11-05T20:03:48.420Z,64.70
2022-11-05T20:06:22.154Z,64.60
2022-11-05T20:09:15.292Z,64.70
2022-11-05T20:11:39.942Z,64.70
2022-11-05T20:14:10.400Z,64.70
2022-11-05T20:16:39.052Z,64.80
2022-11-05T20:19:08.067Z,64.70
2022-11-05T20:21:35.354Z,64.70
2022-11-05T20:24:02.523Z,64.70
2022-11-05T20:26:30.194Z,64.80
2022-11-05T20:28:56.976Z,64.50
2022-11-05T20:31:23.778Z,64.50
2022-11-05T20:33:51.201Z,64.50
2022-11-05T20:36:20.184Z,64.70
2022-11-05T20:39:02.778Z,64.80
2022-11-05T20:41:30.687Z,64.70
2022-11-05T20:43:57.532Z,64.70
2022-11-05T20:46:24.557Z,64.60
2022-11-05T20:48:51.756Z,64.60
2022-11-05T20:51:20.651Z,64.50
2022-11-05T20:53:48.824Z,64.50
2022-11-05T20:56:22.736Z,64.50
2022-11-05T20:58:49.992Z,64.40
2022-11-05T21:01:17.813Z,64.40
2022-11-05T21:03:46.167Z,64.80
2022-11-05T21:06:13.566Z,64.40
2022-11-05T21:08:40.508Z,64.50
2022-11-05T21:11:07.884Z,64.70
2022-11-05T21:13:34.954Z,64.80
2022-11-05T21:16:02.168Z,64.80
2022-11-05T21:18:31.610Z,64.80
2022-11-05T21:21:00.437Z,64.80
2022-11-05T21:23:28.654Z,64.70
2022-11-05T21:25:55.907Z,64.70
2022-11-05T21:28:23.297Z,64.80
2022-11-05T21:30:50.020Z,64.80
2022-11-05T21:33:18.547Z,64.70
2022-11-05T21:35:48.579Z,64.70
2022-11-05T21:38:17.190Z,64.80
2022-11-05T21:40:44.808Z,64.80
2022-11-05T21:43:13.174Z,64.80
2022-11-05T21:45:45.193Z,64.70
2022-11-05T21:48:15.106Z,65.00
2022-11-05T21:51:01.460Z,64.90
2022-11-05T21:53:46.966Z,65.00
2022-11-05T21:56:43.263Z,64.70
2022-11-05T21:59:31.844Z,64.80
2022-11-05T22:02:01.687Z,64.90
2022-11-05T22:04:39.033Z,65.10
2022-11-05T22:07:14.299Z,64.80
2022-11-05T22:09:40.986Z,64.80
2022-11-05T22:12:09.164Z,64.90
2022-11-05T22:14:36.109Z,64.80
2022-11-05T22:17:03.750Z,64.90
2022-11-05T22:19:30.848Z,65.00
2022-11-05T22:21:57.708Z,65.00
2022-11-05T22:24:24.502Z,65.00
2022-11-05T22:26:51.234Z,65.10
2022-11-05T22:29:18.095Z,65.10
2022-11-05T22:31:45.106Z,65.00
2022-11-05T22:34:13.485Z,65.10
2022-11-05T22:36:40.130Z,65.10
2022-11-05T22:39:07.385Z,65.10
2022-11-05T22:41:34.541Z,65.00
2022-11-05T22:44:03.246Z,65.10
2022-11-05T22:46:30.157Z,65.20
2022-11-05T22:48:58.221Z,65.30
2022-11-05T22:51:31.130Z,65.20
2022-11-05T22:53:58.880Z,65.30
2022-11-05T22:56:27.968Z,65.30
2022-11-05T22:58:55.060Z,65.40
2022-11-05T23:01:22.996Z,65.30
2022-11-05T23:03:51.722Z,65.30
2022-11-05T23:06:43.153Z,65.40
2022-11-05T23:09:43.358Z,65.60
2022-11-05T23:12:33.745Z,65.50
2022-11-05T23:15:02.319Z,65.50
2022-11-05T23:17:47.873Z,65.70
2022-11-05T23:20:37.402Z,65.70
2022-11-05T23:23:24.556Z,66.00
2022-11-05T23:25:56.819Z,65.90
2022-11-05T23:28:23.478Z,65.90
2022-11-05T23:31:08.895Z,65.90
2022-11-05T23:33:35.829Z,65.90
2022-11-05T23:36:21.683Z,65.80
2022-11-05T23:38:48.420Z,66.00
2022-11-05T23:41:34.524Z,65.80
2022-11-05T23:44:20.024Z,65.90
2022-11-05T23:47:19.231Z,65.90
2022-11-05T23:49:45.859Z,66.00
2022-11-05T23:52:12.500Z,66.00
2022-11-05T23:54:39.159Z,66.00
2022-11-05T23:57:05.786Z,66.00
2022-11-05T23:59:32.441Z,66.10
